createdAt,value
2019-01-25T00:00:52.943Z,-4.73
2019-01-25T00:01:52.811Z,-4.70
2019-01-25T00:02:52.829Z,-4.73
2019-01-25T00:03:52.792Z,-4.65
2019-01-25T00:04:52.846Z,-4.73
2019-01-25T00:05:52.800Z,-4.77
2019-01-25T00:06:52.856Z,-4.69
2019-01-25T00:07:52.750Z,-4.62
2019-01-25T00:08:52.768Z,-4.69
2019-01-25T00:09:58.629Z,-4.71
2019-01-25T00:10:53.829Z,-4.76
2019-01-25T00:11:52.706Z,-4.73
2019-01-25T00:12:52.798Z,-4.69
2019-01-25T00:13:52.688Z,-4.69
2019-01-25T00:14:52.713Z,-4.63
2019-01-25T00:15:52.664Z,-4.73
2019-01-25T00:16:52.745Z,-4.67
2019-01-25T00:17:52.645Z,-4.70
2019-01-25T00:18:52.736Z,-4.65
2019-01-25T00:19:52.625Z,-4.73
2019-01-25T00:20:52.648Z,-4.67
2019-01-25T00:21:52.619Z,-4.70
2019-01-25T00:22:52.659Z,-4.65
2019-01-25T00:23:52.624Z,-4.70
2019-01-25T00:24:52.682Z,-4.70
2019-01-25T00:25:52.559Z,-4.70
2019-01-25T00:26:52.634Z,-4.67
2019-01-25T00:27:52.544Z,-4.69
2019-01-25T00:28:52.675Z,-4.71
2019-01-25T00:29:52.517Z,-4.67
2019-01-25T00:30:52.611Z,-4.69
2019-01-25T00:31:52.508Z,-4.77
2019-01-25T00:32:52.524Z,-4.59
2019-01-25T00:33:52.477Z,-4.56
2019-01-25T00:34:52.540Z,-4.70
2019-01-25T00:35:52.454Z,-4.58
2019-01-25T00:36:52.487Z,-4.56
2019-01-25T00:37:52.442Z,-4.69
2019-01-25T00:38:52.461Z,-4.67
2019-01-25T00:39:52.415Z,-4.65
2019-01-25T00:40:52.481Z,-4.65
2019-01-25T00:41:52.425Z,-4.65
2019-01-25T00:42:52.490Z,-4.70
2019-01-25T00:43:52.374Z,-4.61
2019-01-25T00:44:52.401Z,-4.59
2019-01-25T00:45:52.353Z,-4.70
2019-01-25T00:46:52.456Z,-4.59
2019-01-25T00:47:52.332Z,-4.70
2019-01-25T00:48:52.427Z,-4.69
2019-01-25T00:49:52.309Z,-4.67
2019-01-25T00:50:52.338Z,-4.63
2019-01-25T00:51:52.302Z,-4.62
2019-01-25T00:52:52.353Z,-4.63
2019-01-25T00:53:52.272Z,-4.76
2019-01-25T00:54:52.366Z,-4.76
2019-01-25T00:55:52.246Z,-4.71
2019-01-25T00:56:52.347Z,-4.65
2019-01-25T00:57:52.226Z,-4.62
2019-01-25T00:58:52.291Z,-4.65
2019-01-25T00:59:52.209Z,-4.65
2019-01-25T01:00:52.310Z,-4.65
2019-01-25T01:01:52.205Z,-4.63
2019-01-25T01:02:52.222Z,-4.67
2019-01-25T01:03:52.164Z,-4.67
2019-01-25T01:04:52.235Z,-4.71
2019-01-25T01:05:52.139Z,-4.62
2019-01-25T01:06:52.162Z,-4.65
2019-01-25T01:07:52.131Z,-4.58
2019-01-25T01:09:07.110Z,-4.62
2019-01-25T01:09:52.103Z,-4.61
2019-01-25T01:10:54.119Z,-4.69
2019-01-25T01:11:52.076Z,-4.67
2019-01-25T01:12:52.114Z,-4.65
2019-01-25T01:13:52.055Z,-4.69
2019-01-25T01:14:52.099Z,-4.69
2019-01-25T01:15:52.036Z,-4.71
2019-01-25T01:16:52.110Z,-4.76
2019-01-25T01:17:52.028Z,-4.74
2019-01-25T01:18:52.020Z,-4.71
2019-01-25T01:19:51.993Z,-4.73
2019-01-25T01:20:52.043Z,-4.73
2019-01-25T01:21:51.972Z,-4.73
2019-01-25T01:22:52.082Z,-4.71
2019-01-25T01:23:51.952Z,-4.65
2019-01-25T01:24:51.967Z,-4.69
2019-01-25T01:25:51.929Z,-4.69
2019-01-25T01:26:51.973Z,-4.70
2019-01-25T01:27:51.920Z,-4.70
2019-01-25T01:28:51.996Z,-4.70
2019-01-25T01:29:51.896Z,-4.71
2019-01-25T01:30:51.901Z,-4.65
2019-01-25T01:31:51.867Z,-4.70
2019-01-25T01:32:51.947Z,-4.74
2019-01-25T01:33:51.847Z,-4.74
2019-01-25T01:34:51.929Z,-4.74
2019-01-25T01:35:51.830Z,-4.73
2019-01-25T01:36:51.838Z,-4.69
2019-01-25T01:37:51.814Z,-4.71
2019-01-25T01:38:51.851Z,-4.70
2019-01-25T01:39:51.787Z,-4.67
2019-01-25T01:40:51.865Z,-4.73
2019-01-25T01:41:51.770Z,-4.73
2019-01-25T01:42:51.804Z,-4.62
2019-01-25T01:43:51.740Z,-4.69
2019-01-25T01:44:51.791Z,-4.70
2019-01-25T01:45:51.729Z,-4.65
2019-01-25T01:46:51.803Z,-4.70
2019-01-25T01:47:51.712Z,-4.74
2019-01-25T01:48:51.714Z,-4.61
2019-01-25T01:49:51.677Z,-4.67
2019-01-25T01:50:51.728Z,-4.69
2019-01-25T01:51:51.659Z,-4.70
2019-01-25T01:52:51.768Z,-4.71
2019-01-25T01:53:51.635Z,-4.71
2019-01-25T01:54:51.652Z,-4.74
2019-01-25T01:55:51.614Z,-4.73
2019-01-25T01:56:53.715Z,-4.74
2019-01-25T01:57:51.597Z,-4.80
2019-01-25T01:58:52.627Z,-4.77
2019-01-25T01:59:51.576Z,-4.76
2019-01-25T02:00:51.591Z,-4.83
2019-01-25T02:01:51.598Z,-4.79
2019-01-25T02:02:51.605Z,-4.81
2019-01-25T02:03:51.548Z,-4.84
2019-01-25T02:04:52.542Z,-4.73
2019-01-25T02:05:51.509Z,-4.77
2019-01-25T02:06:51.527Z,-4.71
2019-01-25T02:07:51.489Z,-4.74
2019-01-25T02:08:51.575Z,-4.76
2019-01-25T02:09:51.473Z,-4.77
2019-01-25T02:10:51.556Z,-4.77
2019-01-25T02:11:51.454Z,-4.79
2019-01-25T02:12:51.468Z,-4.74
2019-01-25T02:13:51.442Z,-4.77
2019-01-25T02:14:51.484Z,-4.74
2019-01-25T02:15:51.407Z,-4.69
2019-01-25T02:16:51.503Z,-4.65
2019-01-25T02:17:51.393Z,-4.67
2019-01-25T02:18:51.431Z,-4.69
2019-01-25T02:19:51.361Z,-4.67
2019-01-25T02:20:51.444Z,-4.69
2019-01-25T02:21:51.350Z,-4.67
2019-01-25T02:22:51.456Z,-4.67
2019-01-25T02:23:51.330Z,-4.71
2019-01-25T02:24:51.351Z,-4.71
2019-01-25T02:25:51.348Z,-4.63
2019-01-25T02:26:51.365Z,-4.71
2019-01-25T02:27:51.290Z,-4.70
2019-01-25T02:28:51.297Z,-4.70
2019-01-25T02:29:51.259Z,-4.69
2019-01-25T02:30:51.285Z,-4.70
2019-01-25T02:31:51.243Z,-4.70
2019-01-25T02:32:51.309Z,-4.69
2019-01-25T02:33:51.232Z,-4.70
2019-01-25T02:34:51.310Z,-4.71
2019-01-25T02:35:51.198Z,-4.76
2019-01-25T02:36:51.223Z,-4.74
2019-01-25T02:37:51.190Z,-4.73
2019-01-25T02:38:51.267Z,-4.74
2019-01-25T02:39:51.166Z,-4.74
2019-01-25T02:40:51.249Z,-4.77
2019-01-25T02:41:51.134Z,-4.79
2019-01-25T02:42:51.160Z,-4.81
2019-01-25T02:43:51.131Z,-4.77
2019-01-25T02:45:00.089Z,-4.71
2019-01-25T02:45:51.093Z,-4.83
2019-01-25T02:47:00.138Z,-4.73
2019-01-25T02:47:51.073Z,-4.76
2019-01-25T02:48:51.127Z,-4.70
2019-01-25T02:49:51.051Z,-4.71
2019-01-25T02:50:53.060Z,-4.67
2019-01-25T02:51:51.034Z,-4.70
2019-01-25T02:52:52.055Z,-4.69
2019-01-25T02:53:51.026Z,-4.74
2019-01-25T02:54:51.037Z,-4.71
2019-01-25T02:55:51.002Z,-4.70
2019-01-25T02:56:51.055Z,-4.65
2019-01-25T02:57:50.971Z,-4.65
2019-01-25T02:58:51.000Z,-4.65
2019-01-25T02:59:50.947Z,-4.73
2019-01-25T03:00:50.976Z,-4.71
2019-01-25T03:01:50.943Z,-4.70
2019-01-25T03:02:51.013Z,-4.71
2019-01-25T03:03:50.943Z,-4.67
2019-01-25T03:04:50.904Z,-4.63
2019-01-25T03:05:50.882Z,-4.69
2019-01-25T03:06:50.916Z,-4.77
2019-01-25T03:07:50.859Z,-4.69
2019-01-25T03:08:50.932Z,-4.71
2019-01-25T03:09:50.864Z,-4.69
2019-01-25T03:10:50.842Z,-4.73
2019-01-25T03:11:50.822Z,-4.69
2019-01-25T03:12:50.877Z,-4.73
2019-01-25T03:13:50.803Z,-4.71
2019-01-25T03:14:50.904Z,-4.70
2019-01-25T03:15:50.774Z,-4.74
2019-01-25T03:16:50.780Z,-4.65
2019-01-25T03:17:50.755Z,-4.59
2019-01-25T03:18:50.799Z,-4.62
2019-01-25T03:19:51.964Z,-4.53
2019-01-25T03:20:50.812Z,-4.62
2019-01-25T03:21:50.707Z,-4.55
2019-01-25T03:22:50.724Z,-4.69
2019-01-25T03:23:50.695Z,-4.71
2019-01-25T03:24:50.770Z,-4.69
2019-01-25T03:25:51.959Z,-4.70
2019-01-25T03:26:51.155Z,-4.69
2019-01-25T03:27:50.648Z,-4.67
2019-01-25T03:28:50.657Z,-4.73
2019-01-25T03:29:50.641Z,-4.73
2019-01-25T03:30:50.690Z,-4.70
2019-01-25T03:31:50.633Z,-4.69
2019-01-25T03:32:51.720Z,-4.63
2019-01-25T03:33:50.588Z,-4.70
2019-01-25T03:34:50.634Z,-4.71
2019-01-25T03:35:50.570Z,-4.73
2019-01-25T03:36:50.610Z,-4.74
2019-01-25T03:37:50.550Z,-4.76
2019-01-25T03:38:50.623Z,-4.71
2019-01-25T03:39:50.544Z,-4.76
2019-01-25T03:40:54.965Z,-4.80
2019-01-25T03:41:51.516Z,-4.77
2019-01-25T03:42:50.551Z,-4.76
2019-01-25T03:43:50.482Z,-4.74
2019-01-25T03:44:50.589Z,-4.77
2019-01-25T03:45:50.461Z,-4.74
2019-01-25T03:46:50.472Z,-4.76
2019-01-25T03:47:50.439Z,-4.77
2019-01-25T03:48:50.498Z,-4.77
2019-01-25T03:49:50.439Z,-4.76
2019-01-25T03:50:50.509Z,-4.80
2019-01-25T03:51:50.397Z,-4.76
2019-01-25T03:52:50.421Z,-4.76
2019-01-25T03:53:50.377Z,-4.84
2019-01-25T03:54:50.461Z,-4.80
2019-01-25T03:55:50.355Z,-4.76
2019-01-25T03:56:50.455Z,-4.74
2019-01-25T03:57:50.334Z,-4.79
2019-01-25T03:58:50.358Z,-4.77
2019-01-25T03:59:50.339Z,-4.77
2019-01-25T04:00:50.376Z,-4.73
2019-01-25T04:01:50.292Z,-4.81
2019-01-25T04:02:50.389Z,-4.74
2019-01-25T04:03:50.270Z,-4.77
2019-01-25T04:04:50.317Z,-4.79
2019-01-25T04:05:50.253Z,-4.76
2019-01-25T04:06:50.309Z,-4.77
2019-01-25T04:07:50.231Z,-4.71
2019-01-25T04:08:50.329Z,-4.74
2019-01-25T04:09:50.237Z,-4.70
2019-01-25T04:10:50.245Z,-4.70
2019-01-25T04:11:50.188Z,-4.67
2019-01-25T04:12:50.247Z,-4.73
2019-01-25T04:13:50.170Z,-4.67
2019-01-25T04:14:50.268Z,-4.65
2019-01-25T04:15:50.157Z,-4.61
2019-01-25T04:16:50.191Z,-4.67
2019-01-25T04:17:50.124Z,-4.53
2019-01-25T04:18:50.185Z,-4.59
2019-01-25T04:19:50.104Z,-4.63
2019-01-25T04:20:50.123Z,-4.67
2019-01-25T04:21:50.094Z,-4.62
2019-01-25T04:22:52.164Z,-4.67
2019-01-25T04:23:50.060Z,-4.65
2019-01-25T04:24:50.134Z,-4.59
2019-01-25T04:25:50.059Z,-4.59
2019-01-25T04:26:50.143Z,-4.61
2019-01-25T04:27:50.069Z,-4.67
2019-01-25T04:28:50.058Z,-4.65
2019-01-25T04:29:50.012Z,-4.71
2019-01-25T04:30:50.085Z,-4.65
2019-01-25T04:31:49.978Z,-4.74
2019-01-25T04:32:50.085Z,-4.59
2019-01-25T04:33:49.963Z,-4.63
2019-01-25T04:34:50.006Z,-4.59
2019-01-25T04:35:49.945Z,-4.70
2019-01-25T04:36:50.035Z,-4.70
2019-01-25T04:37:49.915Z,-4.65
2019-01-25T04:38:50.021Z,-4.62
2019-01-25T04:39:49.907Z,-4.67
2019-01-25T04:40:49.944Z,-4.69
2019-01-25T04:41:49.885Z,-4.55
2019-01-25T04:42:49.937Z,-4.62
2019-01-25T04:43:49.862Z,-4.58
2019-01-25T04:44:49.961Z,-4.58
2019-01-25T04:45:50.475Z,-4.63
2019-01-25T04:46:49.870Z,-4.69
2019-01-25T04:47:49.812Z,-4.58
2019-01-25T04:48:49.876Z,-4.58
2019-01-25T04:49:49.791Z,-4.61
2019-01-25T04:50:49.808Z,-4.58
2019-01-25T04:51:49.775Z,-4.58
2019-01-25T04:52:49.811Z,-4.55
2019-01-25T04:53:49.746Z,-4.61
2019-01-25T04:54:49.815Z,-4.58
2019-01-25T04:55:49.735Z,-4.55
2019-01-25T04:56:49.829Z,-4.47
2019-01-25T04:57:49.704Z,-4.49
2019-01-25T04:58:49.747Z,-4.56
2019-01-25T04:59:49.683Z,-4.49
2019-01-25T05:00:49.808Z,-4.51
2019-01-25T05:01:49.663Z,-4.49
2019-01-25T05:02:49.768Z,-4.58
2019-01-25T05:03:50.973Z,-4.56
2019-01-25T05:04:49.694Z,-4.58
2019-01-25T05:05:49.647Z,-4.58
2019-01-25T05:06:49.703Z,-4.55
2019-01-25T05:07:49.605Z,-4.56
2019-01-25T05:08:50.630Z,-4.59
2019-01-25T05:09:49.588Z,-4.58
2019-01-25T05:10:51.753Z,-4.58
2019-01-25T05:11:49.555Z,-4.70
2019-01-25T05:12:53.154Z,-4.63
2019-01-25T05:13:49.539Z,-4.73
2019-01-25T05:14:49.544Z,-4.61
2019-01-25T05:15:49.535Z,-4.71
2019-01-25T05:16:49.563Z,-4.67
2019-01-25T05:17:49.494Z,-4.76
2019-01-25T05:18:49.602Z,-4.73
2019-01-25T05:19:49.491Z,-4.61
2019-01-25T05:20:50.738Z,-4.71
2019-01-25T05:21:49.459Z,-4.67
2019-01-25T05:22:49.501Z,-4.69
2019-01-25T05:23:49.433Z,-4.74
2019-01-25T05:24:49.512Z,-4.65
2019-01-25T05:25:49.443Z,-4.67
2019-01-25T05:26:49.423Z,-4.73
2019-01-25T05:27:49.389Z,-4.65
2019-01-25T05:28:49.441Z,-4.70
2019-01-25T05:29:49.383Z,-4.71
2019-01-25T05:30:49.470Z,-4.67
2019-01-25T05:31:49.353Z,-4.73
2019-01-25T05:32:49.360Z,-4.70
2019-01-25T05:33:49.327Z,-4.67
2019-01-25T05:34:49.380Z,-4.62
2019-01-25T05:35:49.340Z,-4.70
2019-01-25T05:36:49.390Z,-4.67
2019-01-25T05:37:49.289Z,-4.70
2019-01-25T05:38:49.298Z,-4.73
2019-01-25T05:39:49.273Z,-4.67
2019-01-25T05:40:49.312Z,-4.69
2019-01-25T05:41:49.257Z,-4.70
2019-01-25T05:42:49.334Z,-4.73
2019-01-25T05:43:49.225Z,-4.70
2019-01-25T05:44:49.244Z,-4.67
2019-01-25T05:45:49.208Z,-4.73
2019-01-25T05:46:49.274Z,-4.70
2019-01-25T05:47:49.191Z,-4.63
2019-01-25T05:48:49.276Z,-4.70
2019-01-25T05:49:49.165Z,-4.65
2019-01-25T05:50:49.181Z,-4.70
2019-01-25T05:51:49.157Z,-4.67
2019-01-25T05:52:49.198Z,-4.67
2019-01-25T05:53:49.115Z,-4.65
2019-01-25T05:54:49.214Z,-4.71
2019-01-25T05:55:49.102Z,-4.70
2019-01-25T05:56:58.154Z,-4.80
2019-01-25T05:57:49.126Z,-4.71
2019-01-25T05:58:51.183Z,-4.79
2019-01-25T05:59:49.073Z,-4.79
2019-01-25T06:00:50.074Z,-4.76
2019-01-25T06:01:49.042Z,-4.71
2019-01-25T06:02:49.061Z,-4.83
2019-01-25T06:03:49.016Z,-4.73
2019-01-25T06:04:49.088Z,-4.79
2019-01-25T06:05:48.995Z,-4.77
2019-01-25T06:06:49.010Z,-4.83
2019-01-25T06:07:48.976Z,-4.76
2019-01-25T06:08:48.998Z,-4.80
2019-01-25T06:09:48.965Z,-4.83
2019-01-25T06:10:49.011Z,-4.77
2019-01-25T06:11:48.940Z,-4.79
2019-01-25T06:12:50.381Z,-4.80
2019-01-25T06:13:48.912Z,-4.77
2019-01-25T06:14:48.954Z,-4.77
2019-01-25T06:15:48.886Z,-4.74
2019-01-25T06:16:48.992Z,-4.81
2019-01-25T06:17:48.871Z,-4.74
2019-01-25T06:18:48.966Z,-4.76
2019-01-25T06:19:49.946Z,-4.73
2019-01-25T06:20:48.905Z,-4.83
2019-01-25T06:21:48.831Z,-4.73
2019-01-25T06:22:48.913Z,-4.77
2019-01-25T06:23:48.809Z,-4.77
2019-01-25T06:24:48.901Z,-4.73
2019-01-25T06:25:48.784Z,-4.76
2019-01-25T06:26:48.856Z,-4.67
2019-01-25T06:27:48.755Z,-4.74
2019-01-25T06:28:48.840Z,-4.71
2019-01-25T06:29:48.747Z,-4.76
2019-01-25T06:30:48.878Z,-4.70
2019-01-25T06:31:48.739Z,-4.67
2019-01-25T06:32:48.757Z,-4.73
2019-01-25T06:33:48.702Z,-4.73
2019-01-25T06:34:48.775Z,-4.67
2019-01-25T06:35:51.043Z,-4.76
2019-01-25T06:36:48.710Z,-4.73
2019-01-25T06:37:48.682Z,-4.77
2019-01-25T06:38:48.693Z,-4.71
2019-01-25T06:39:48.632Z,-4.76
2019-01-25T06:40:48.713Z,-4.69
2019-01-25T06:41:48.639Z,-4.62
2019-01-25T06:42:48.783Z,-4.71
2019-01-25T06:43:48.604Z,-4.71
2019-01-25T06:44:48.638Z,-4.70
2019-01-25T06:45:49.886Z,-4.71
2019-01-25T06:46:48.680Z,-4.71
2019-01-25T06:47:48.549Z,-4.74
2019-01-25T06:48:48.554Z,-4.81
2019-01-25T06:49:48.530Z,-4.76
2019-01-25T06:50:48.568Z,-4.76
2019-01-25T06:51:48.524Z,-4.73
2019-01-25T06:52:48.580Z,-4.74
2019-01-25T06:53:48.487Z,-4.74
2019-01-25T06:54:48.492Z,-4.73
2019-01-25T06:55:48.531Z,-4.71
2019-01-25T06:56:48.532Z,-4.71
2019-01-25T06:57:48.442Z,-4.71
2019-01-25T06:58:48.521Z,-4.67
2019-01-25T06:59:48.430Z,-4.73
2019-01-25T07:00:48.433Z,-4.67
2019-01-25T07:01:48.403Z,-4.70
2019-01-25T07:02:48.479Z,-4.70
2019-01-25T07:03:48.380Z,-4.73
2019-01-25T07:04:48.462Z,-4.71
2019-01-25T07:05:48.372Z,-4.73
2019-01-25T07:06:48.372Z,-4.70
2019-01-25T07:07:48.368Z,-4.63
2019-01-25T07:08:48.384Z,-4.67
2019-01-25T07:09:48.316Z,-4.71
2019-01-25T07:10:48.399Z,-4.69
2019-01-25T07:11:51.716Z,-4.67
2019-01-25T07:12:48.338Z,-4.71
2019-01-25T07:13:48.276Z,-4.70
2019-01-25T07:14:48.322Z,-4.67
2019-01-25T07:15:48.256Z,-4.69
2019-01-25T07:16:48.337Z,-4.70
2019-01-25T07:17:48.255Z,-4.58
2019-01-25T07:18:48.246Z,-4.71
2019-01-25T07:19:48.211Z,-4.61
2019-01-25T07:20:48.260Z,-4.70
2019-01-25T07:21:48.193Z,-4.70
2019-01-25T07:22:48.300Z,-4.73
2019-01-25T07:23:48.177Z,-4.71
2019-01-25T07:24:48.185Z,-4.73
2019-01-25T07:25:48.152Z,-4.63
2019-01-25T07:26:48.198Z,-4.73
2019-01-25T07:27:48.140Z,-4.61
2019-01-25T07:28:48.213Z,-4.56
2019-01-25T07:29:48.134Z,-4.58
2019-01-25T07:30:48.185Z,-4.58
2019-01-25T07:31:48.089Z,-4.59
2019-01-25T07:32:48.172Z,-4.56
2019-01-25T07:33:48.075Z,-4.58
2019-01-25T07:34:49.079Z,-4.58
2019-01-25T07:35:48.077Z,-4.61
2019-01-25T07:36:48.072Z,-4.63
2019-01-25T07:37:48.042Z,-4.52
2019-01-25T07:38:48.109Z,-4.58
2019-01-25T07:39:48.005Z,-4.58
2019-01-25T07:40:48.105Z,-4.52
2019-01-25T07:41:48.005Z,-4.56
2019-01-25T07:42:48.038Z,-4.52
2019-01-25T07:43:47.961Z,-4.47
2019-01-25T07:44:48.025Z,-4.47
2019-01-25T07:45:47.971Z,-4.47
2019-01-25T07:46:48.037Z,-4.44
2019-01-25T07:47:47.941Z,-4.44
2019-01-25T07:48:48.989Z,-4.45
2019-01-25T07:49:47.955Z,-4.52
2019-01-25T07:50:47.971Z,-4.51
2019-01-25T07:51:47.891Z,-4.51
2019-01-25T07:52:48.009Z,-4.49
2019-01-25T07:53:48.247Z,-4.44
2019-01-25T07:54:47.885Z,-4.44
2019-01-25T07:55:47.889Z,-4.51
2019-01-25T07:56:47.933Z,-4.44
2019-01-25T07:57:47.818Z,-4.41
2019-01-25T07:58:48.025Z,-4.40
2019-01-25T07:59:47.835Z,-4.41
2019-01-25T08:00:47.858Z,-4.41
2019-01-25T08:01:47.781Z,-4.42
2019-01-25T08:02:48.269Z,-4.44
2019-01-25T08:03:49.755Z,-4.42
2019-01-25T08:04:47.894Z,-4.44
2019-01-25T08:05:47.774Z,-4.44
2019-01-25T08:06:47.790Z,-4.44
2019-01-25T08:07:47.729Z,-4.40
2019-01-25T08:08:48.478Z,-4.33
2019-01-25T08:09:47.708Z,-4.24
2019-01-25T08:10:47.877Z,-4.27
2019-01-25T08:11:47.725Z,-4.27
2019-01-25T08:12:47.728Z,-4.24
2019-01-25T08:13:47.694Z,-4.20
2019-01-25T08:14:47.734Z,-4.20
2019-01-25T08:15:47.663Z,-4.23
2019-01-25T08:16:47.745Z,-4.31
2019-01-25T08:17:47.913Z,-4.31
2019-01-25T08:18:47.659Z,-4.22
2019-01-25T08:19:47.626Z,-4.24
2019-01-25T08:20:47.671Z,-4.23
2019-01-25T08:21:47.565Z,-4.22
2019-01-25T08:23:04.567Z,-4.27
2019-01-25T08:23:47.602Z,-4.22
2019-01-25T08:24:55.095Z,-4.23
2019-01-25T08:25:47.524Z,-4.19
2019-01-25T08:26:47.662Z,-4.22
2019-01-25T08:27:47.754Z,-4.13
2019-01-25T08:28:47.543Z,-4.20
2019-01-25T08:29:47.479Z,-4.19
2019-01-25T08:30:47.583Z,-4.22
2019-01-25T08:31:47.916Z,-4.23
2019-01-25T08:32:47.542Z,-4.17
2019-01-25T08:33:47.456Z,-4.19
2019-01-25T08:34:47.559Z,-4.17
2019-01-25T08:35:47.416Z,-4.20
2019-01-25T08:36:47.452Z,-4.17
2019-01-25T08:37:47.400Z,-4.16
2019-01-25T08:38:47.509Z,-4.04
2019-01-25T08:39:47.426Z,-4.05
2019-01-25T08:40:47.375Z,-4.05
2019-01-25T08:41:47.378Z,-4.06
2019-01-25T08:42:47.429Z,-4.08
2019-01-25T08:43:47.368Z,-3.96
2019-01-25T08:44:47.450Z,-4.05
2019-01-25T08:45:49.301Z,-4.04
2019-01-25T08:46:47.356Z,-4.09
2019-01-25T08:47:47.297Z,-4.09
2019-01-25T08:48:47.467Z,-3.96
2019-01-25T08:49:47.276Z,-4.02
2019-01-25T08:50:47.356Z,-3.99
2019-01-25T08:51:47.319Z,-4.01
2019-01-25T08:52:47.262Z,-3.90
2019-01-25T08:53:47.261Z,-3.95
2019-01-25T08:54:47.359Z,-3.94
2019-01-25T08:55:47.225Z,-3.84
2019-01-25T08:56:47.338Z,-3.80
2019-01-25T08:57:47.228Z,-3.80
2019-01-25T08:58:47.192Z,-3.78
2019-01-25T08:59:47.181Z,-3.75
2019-01-25T09:00:47.218Z,-3.81
2019-01-25T09:01:47.150Z,-3.66
2019-01-25T09:02:47.256Z,-3.74
2019-01-25T09:03:47.143Z,-3.68
2019-01-25T09:04:47.154Z,-3.74
2019-01-25T09:05:47.101Z,-3.75
2019-01-25T09:06:47.147Z,-3.64
2019-01-25T09:07:47.082Z,-3.65
2019-01-25T09:08:48.183Z,-3.68
2019-01-25T09:09:47.078Z,-3.61
2019-01-25T09:10:55.065Z,-3.62
2019-01-25T09:11:47.033Z,-3.53
2019-01-25T09:12:53.677Z,-3.48
2019-01-25T09:13:47.037Z,-3.53
2019-01-25T09:14:48.042Z,-3.71
2019-01-25T09:15:47.013Z,-3.64
2019-01-25T09:16:48.048Z,-3.77
2019-01-25T09:17:46.988Z,-3.74
2019-01-25T09:18:47.026Z,-3.56
2019-01-25T09:19:46.963Z,-3.53
2019-01-25T09:20:47.039Z,-3.51
2019-01-25T09:21:46.932Z,-3.58
2019-01-25T09:22:46.953Z,-3.59
2019-01-25T09:23:46.906Z,-3.55
2019-01-25T09:24:46.986Z,-3.48
2019-01-25T09:25:46.888Z,-3.51
2019-01-25T09:26:46.982Z,-3.55
2019-01-25T09:27:46.867Z,-3.50
2019-01-25T09:28:46.896Z,-3.41
2019-01-25T09:29:46.881Z,-3.44
2019-01-25T09:30:46.905Z,-3.41
2019-01-25T09:31:46.833Z,-3.46
2019-01-25T09:32:46.939Z,-3.43
2019-01-25T09:33:46.801Z,-3.44
2019-01-25T09:34:46.852Z,-3.44
2019-01-25T09:35:46.783Z,-3.37
2019-01-25T09:36:46.837Z,-3.48
2019-01-25T09:37:46.761Z,-3.30
2019-01-25T09:38:46.859Z,-3.32
2019-01-25T09:39:46.753Z,-3.25
2019-01-25T09:40:46.789Z,-3.17
2019-01-25T09:41:46.719Z,-3.26
2019-01-25T09:42:46.778Z,-3.25
2019-01-25T09:43:46.703Z,-3.19
2019-01-25T09:44:46.816Z,-3.29
2019-01-25T09:45:46.675Z,-3.29
2019-01-25T09:46:46.701Z,-3.32
2019-01-25T09:47:46.660Z,-3.44
2019-01-25T09:48:46.713Z,-3.33
2019-01-25T09:49:46.658Z,-3.29
2019-01-25T09:50:52.658Z,-3.30
2019-01-25T09:51:47.609Z,-3.32
2019-01-25T09:52:46.641Z,-3.26
2019-01-25T09:53:46.592Z,-3.19
2019-01-25T09:54:46.655Z,-2.99
2019-01-25T09:55:47.923Z,-3.01
2019-01-25T09:56:46.669Z,-3.09
2019-01-25T09:57:46.559Z,-2.99
2019-01-25T09:58:46.580Z,-3.05
2019-01-25T09:59:46.527Z,-3.01
2019-01-25T10:00:46.626Z,-2.96
2019-01-25T10:01:46.518Z,-3.04
2019-01-25T10:02:46.604Z,-3.05
2019-01-25T10:03:46.494Z,-2.98
2019-01-25T10:04:46.516Z,-2.93
2019-01-25T10:05:46.481Z,-2.86
2019-01-25T10:06:46.528Z,-2.78
2019-01-25T10:07:46.468Z,-2.70
2019-01-25T10:08:46.441Z,-2.87
2019-01-25T10:09:46.428Z,-2.75
2019-01-25T10:10:46.492Z,-2.68
2019-01-25T10:11:46.396Z,-2.55
2019-01-25T10:12:46.467Z,-2.65
2019-01-25T10:13:46.391Z,-2.61
2019-01-25T10:14:46.385Z,-2.70
2019-01-25T10:15:46.379Z,-2.63
2019-01-25T10:16:46.392Z,-2.65
2019-01-25T10:17:46.334Z,-2.76
2019-01-25T10:18:46.408Z,-2.68
2019-01-25T10:19:46.315Z,-2.68
2019-01-25T10:20:46.346Z,-2.69
2019-01-25T10:21:46.292Z,-2.54
2019-01-25T10:22:46.332Z,-2.48
2019-01-25T10:23:46.274Z,-2.62
2019-01-25T10:24:46.374Z,-2.42
2019-01-25T10:25:46.665Z,-2.37
2019-01-25T10:26:46.256Z,-2.37
2019-01-25T10:27:47.222Z,-2.36
2019-01-25T10:28:46.270Z,-2.32
2019-01-25T10:29:46.215Z,-2.22
2019-01-25T10:30:46.312Z,-2.22
2019-01-25T10:31:46.184Z,-2.15
2019-01-25T10:32:46.200Z,-2.00
2019-01-25T10:33:46.176Z,-1.93
2019-01-25T10:34:46.224Z,-2.05
2019-01-25T10:35:46.154Z,-2.29
2019-01-25T10:36:46.228Z,-2.28
2019-01-25T10:37:46.121Z,-2.11
2019-01-25T10:38:46.146Z,-2.17
2019-01-25T10:39:46.119Z,-2.26
2019-01-25T10:40:47.045Z,-2.32
2019-01-25T10:41:46.081Z,-2.14
2019-01-25T10:42:52.946Z,-2.08
2019-01-25T10:43:47.052Z,-2.17
2019-01-25T10:44:47.139Z,-2.13
2019-01-25T10:45:46.084Z,-2.07
2019-01-25T10:46:53.048Z,-2.07
2019-01-25T10:47:46.021Z,-1.96
2019-01-25T10:48:47.022Z,-1.82
2019-01-25T10:49:45.994Z,-1.94
2019-01-25T10:50:46.012Z,-1.89
2019-01-25T10:51:45.987Z,-2.14
2019-01-25T10:52:46.026Z,-2.39
2019-01-25T10:53:45.995Z,-2.26
2019-01-25T10:54:46.039Z,-2.07
2019-01-25T10:55:45.926Z,-1.92
2019-01-25T10:56:45.980Z,-1.66
2019-01-25T10:57:45.925Z,-1.64
2019-01-25T10:58:45.964Z,-1.66
2019-01-25T10:59:45.883Z,-1.40
2019-01-25T11:00:45.983Z,-1.39
2019-01-25T11:01:45.895Z,-1.18
2019-01-25T11:02:45.889Z,-1.15
2019-01-25T11:03:46.775Z,-1.12
2019-01-25T11:04:45.901Z,-1.40
2019-01-25T11:05:45.818Z,-1.12
2019-01-25T11:06:45.844Z,-1.04
2019-01-25T11:07:45.796Z,-1.07
2019-01-25T11:08:45.831Z,-1.04
2019-01-25T11:09:46.907Z,-0.87
2019-01-25T11:10:45.843Z,-0.94
2019-01-25T11:11:45.764Z,-0.89
2019-01-25T11:12:45.858Z,-0.69
2019-01-25T11:13:45.731Z,-0.42
2019-01-25T11:14:45.770Z,-0.20
2019-01-25T11:15:45.726Z,-0.20
2019-01-25T11:16:46.958Z,-0.74
2019-01-25T11:17:45.689Z,-1.25
2019-01-25T11:18:45.693Z,-1.54
2019-01-25T11:19:45.666Z,-1.93
2019-01-25T11:20:45.709Z,-1.81
2019-01-25T11:21:46.916Z,-2.07
2019-01-25T11:22:45.722Z,-2.13
2019-01-25T11:23:45.622Z,-1.99
2019-01-25T11:24:45.634Z,-1.89
2019-01-25T11:25:45.604Z,-2.07
2019-01-25T11:26:45.671Z,-2.17
2019-01-25T11:27:45.584Z,-2.18
2019-01-25T11:28:45.671Z,-2.22
2019-01-25T11:29:45.559Z,-2.17
2019-01-25T11:30:47.616Z,-2.07
2019-01-25T11:31:45.541Z,-2.10
2019-01-25T11:32:50.150Z,-1.97
2019-01-25T11:33:45.525Z,-1.97
2019-01-25T11:34:46.521Z,-2.13
2019-01-25T11:35:45.499Z,-2.20
2019-01-25T11:36:45.506Z,-2.36
2019-01-25T11:37:45.492Z,-2.32
2019-01-25T11:38:45.520Z,-2.33
2019-01-25T11:39:49.160Z,-2.37
2019-01-25T11:40:45.540Z,-2.20
2019-01-25T11:41:45.434Z,-2.13
2019-01-25T11:42:45.470Z,-2.26
2019-01-25T11:43:45.410Z,-2.14
2019-01-25T11:44:45.461Z,-2.14
2019-01-25T11:45:45.389Z,-2.22
2019-01-25T11:46:45.472Z,-2.18
2019-01-25T11:47:45.383Z,-2.15
2019-01-25T11:48:45.385Z,-2.02
2019-01-25T11:49:45.353Z,-2.15
2019-01-25T11:50:45.402Z,-1.92
2019-01-25T11:51:45.324Z,-1.76
2019-01-25T11:52:45.481Z,-1.69
2019-01-25T11:53:45.702Z,-1.71
2019-01-25T11:54:45.323Z,-1.86
2019-01-25T11:55:45.289Z,-2.14
2019-01-25T11:56:45.336Z,-2.20
2019-01-25T11:57:45.271Z,-2.36
2019-01-25T11:58:45.351Z,-2.33
2019-01-25T11:59:45.238Z,-2.36
2019-01-25T12:00:45.263Z,-2.52
2019-01-25T12:01:45.224Z,-2.58
2019-01-25T12:02:45.298Z,-2.70
2019-01-25T12:03:45.194Z,-2.62
2019-01-25T12:04:45.295Z,-2.63
2019-01-25T12:05:45.172Z,-2.57
2019-01-25T12:06:45.200Z,-2.44
2019-01-25T12:07:45.177Z,-2.39
2019-01-25T12:08:45.215Z,-2.34
2019-01-25T12:09:45.138Z,-2.51
2019-01-25T12:10:45.232Z,-2.42
2019-01-25T12:11:45.111Z,-2.52
2019-01-25T12:12:45.163Z,-2.28
2019-01-25T12:13:45.094Z,-2.32
2019-01-25T12:14:45.157Z,-2.34
2019-01-25T12:15:45.066Z,-2.36
2019-01-25T12:16:46.108Z,-2.42
2019-01-25T12:17:45.052Z,-2.39
2019-01-25T12:18:46.130Z,-2.25
2019-01-25T12:19:45.023Z,-2.13
2019-01-25T12:20:46.127Z,-2.10
2019-01-25T12:21:45.005Z,-2.13
2019-01-25T12:22:45.009Z,-2.08
2019-01-25T12:23:44.995Z,-1.78
2019-01-25T12:24:45.018Z,-1.75
2019-01-25T12:25:45.029Z,-1.76
2019-01-25T12:26:45.147Z,-1.50
2019-01-25T12:27:44.936Z,-1.56
2019-01-25T12:28:44.970Z,-1.56
2019-01-25T12:29:44.918Z,-1.57
2019-01-25T12:30:44.965Z,-1.54
2019-01-25T12:31:44.896Z,-1.57
2019-01-25T12:32:44.974Z,-1.66
2019-01-25T12:33:44.883Z,-1.72
2019-01-25T12:34:44.880Z,-1.66
2019-01-25T12:35:44.851Z,-1.90
2019-01-25T12:36:44.893Z,-1.87
2019-01-25T12:37:44.828Z,-1.89
2019-01-25T12:38:44.935Z,-1.69
2019-01-25T12:39:44.809Z,-1.69
2019-01-25T12:40:44.819Z,-1.71
2019-01-25T12:41:44.792Z,-1.69
2019-01-25T12:42:44.836Z,-1.84
2019-01-25T12:43:44.776Z,-1.60
2019-01-25T12:44:44.850Z,-1.69
2019-01-25T12:45:44.751Z,-1.53
2019-01-25T12:46:44.769Z,-1.54
2019-01-25T12:47:44.722Z,-1.75
2019-01-25T12:48:44.799Z,-1.66
2019-01-25T12:49:44.700Z,-1.66
2019-01-25T12:50:49.037Z,-1.61
2019-01-25T12:51:44.681Z,-1.69
2019-01-25T12:52:44.697Z,-1.71